Terminal Aerodrome Forecast
Issued by NWS

Home | Current Version | Previous Version | Graphics & Text | Print | Product List | Glossary On
Versions: 1 2 3 4 5 6 7 8 9 10 11 12 13 14 15 16 17 18 19 20 21 22 23 24
781
FTUS43 KABR 261226 AAA
TAFMBG
TAF AMD
KMBG 261226Z 2612/2712 VRB05KT 1SM BR OVC002
     FM261500 VRB03KT 5SM BR OVC008
     FM261700 VRB03KT P6SM OVC040
     FM270800 VRB03KT P6SM SCT090=

USA.gov is the U.S. government's official web portal to all federal, state and local government web resources and services.